2006 ISAAC (2006271N26307)


On this page: IBTrACS data - Map and Plots - Positions - Intensities - Original source data

Summary

Start Sep 27
End Oct 3
Basin NA
LMI 75 kt
Sources hurdat_atl
atcf
In WMO? Yes
Previous storm 2006 MISSING (NI)
Previous in basin 2006 HELENE (NA)
Concurrent storms 2006 HELENE (NA)
2006 XANGSANE (WP)
2006 MISSING (NI)
2006 ISAAC (NA)
2006 BEBINCA (WP)
2006 RUMBIA (WP)
Next in basin Missing
Next storm 2006 BEBINCA (WP)

top of page IBTrACS Data: File Access

top of page HURSAT Data: File Access

Image of storm

top of page Plots:

Map of storm track will not appear if FTP is down
Time series of cyclone Maximum Sustained Wind will not appear if FTP is down
Time series of cyclone Minimum Central Pressure will not appear if FTP is down

top of page Track Data:Position

hurdat_atl atcf
Date Lat Lon Lat Lon
2006-09-27 18:00:00 26.1 -52.6 26.1 -52.6
2006-09-28 00:00:00 26.8 -53.4 26.8 -53.4
2006-09-28 06:00:00 27.4 -54.0 27.4 -54.0
2006-09-28 12:00:00 28.0 -54.4 28.0 -54.4
2006-09-28 18:00:00 28.6 -54.6 28.6 -54.6
2006-09-29 00:00:00 28.9 -54.9 28.9 -54.9
2006-09-29 06:00:00 29.0 -55.4 29.0 -55.4
2006-09-29 12:00:00 29.2 -55.8 29.2 -55.8
2006-09-29 18:00:00 29.5 -56.5 29.5 -56.5
2006-09-30 00:00:00 29.8 -57.1 29.8 -57.1
2006-09-30 06:00:00 30.1 -57.7 30.1 -57.7
2006-09-30 12:00:00 30.6 -58.5 30.6 -58.5
2006-09-30 18:00:00 31.3 -59.2 31.3 -59.2
2006-10-01 00:00:00 32.0 -59.8 32.0 -59.8
2006-10-01 06:00:00 32.8 -60.2 32.8 -60.2
2006-10-01 12:00:00 33.8 -60.3 33.8 -60.3
2006-10-01 18:00:00 35.2 -60.3 35.2 -60.3
2006-10-02 00:00:00 37.2 -59.6 37.2 -59.6
2006-10-02 06:00:00 39.8 -58.0 39.8 -58.0
2006-10-02 12:00:00 42.5 -56.2 42.5 -56.2
2006-10-02 18:00:00 45.5 -53.7 45.5 -53.7
2006-10-03 00:00:00 47.6 -51.0 47.6 -51.0
2006-10-03 06:00:00 48.6 -49.0 48.6 -49.0
2006-10-03 12:00:00 49.5 -47.0 49.5 -47.0

top of pageTrack Data:Intensity

hurdat_atl atcf
Date Wind Pres Wind Pres
2006-09-27 18:00:00 30. 1012. 30. 1012.
2006-09-28 00:00:00 30. 1012. 30. 1012.
2006-09-28 06:00:00 35. 1008. 35. 1008.
2006-09-28 12:00:00 40. 1006. 40. 1006.
2006-09-28 18:00:00 40. 1006. 40. 1006.
2006-09-29 00:00:00 40. 1006. 40. 1006.
2006-09-29 06:00:00 40. 1006. 40. 1006.
2006-09-29 12:00:00 45. 1003. 45. 1003.
2006-09-29 18:00:00 50. 1000. 50. 1000.
2006-09-30 00:00:00 60. 997. 60. 997.
2006-09-30 06:00:00 60. 995. 60. 995.
2006-09-30 12:00:00 65. 992. 65. 992.
2006-09-30 18:00:00 70. 989. 70. 989.
2006-10-01 00:00:00 75. 987. 75. 987.
2006-10-01 06:00:00 75. 985. 75. 985.
2006-10-01 12:00:00 70. 986. 70. 986.
2006-10-01 18:00:00 70. 987. 70. 987.
2006-10-02 00:00:00 65. 988. 65. 988.
2006-10-02 06:00:00 65. 989. 65. 989.
2006-10-02 12:00:00 60. 990. 60. 990.
2006-10-02 18:00:00 55. 995. 55. 995.
2006-10-03 00:00:00 55. 996. 55. 996.
2006-10-03 06:00:00 45. 998. 45. 998.
2006-10-03 12:00:00 35. 1000. 35. 1000.

top of page Links to source data

Source Source file Format
hurdat_atl tracks1851to2011.txt:1387:ISAAC HURDAT
atcf bal102006.dat ATCF